createdAt,value
2022-12-31T00:00:09.316Z,2.70
2022-12-31T00:02:36.310Z,1.60
2022-12-31T00:05:04.385Z,2.00
2022-12-31T00:09:58.069Z,2.65
2022-12-31T00:12:25.295Z,3.03
2022-12-31T00:14:52.093Z,2.53
2022-12-31T00:17:19.153Z,3.13
2022-12-31T00:19:45.957Z,3.92
2022-12-31T00:22:12.765Z,3.13
2022-12-31T00:24:39.571Z,1.88
2022-12-31T00:27:06.329Z,4.85
2022-12-31T00:29:33.270Z,2.55
2022-12-31T00:32:00.121Z,2.88
2022-12-31T00:34:27.512Z,3.85
2022-12-31T00:36:54.368Z,4.28
2022-12-31T00:39:21.139Z,3.25
2022-12-31T00:41:47.923Z,3.97
2022-12-31T00:44:14.914Z,3.33
2022-12-31T00:49:09.326Z,4.53
2022-12-31T00:51:36.236Z,5.80
2022-12-31T00:54:03.206Z,5.57
2022-12-31T00:56:31.551Z,4.22
2022-12-31T00:59:00.207Z,6.35
2022-12-31T01:01:31.687Z,3.47
2022-12-31T01:04:06.346Z,2.83
2022-12-31T01:06:33.684Z,3.33
2022-12-31T01:09:00.887Z,2.65
2022-12-31T01:11:30.892Z,3.20
2022-12-31T01:14:20.641Z,4.18
2022-12-31T01:16:53.691Z,4.95
2022-12-31T01:19:28.037Z,4.00
2022-12-31T01:21:55.986Z,3.40
2022-12-31T01:24:23.271Z,4.13
2022-12-31T01:26:51.252Z,4.32
2022-12-31T01:29:18.451Z,3.67
2022-12-31T01:31:45.380Z,4.68
2022-12-31T01:34:12.257Z,4.05
2022-12-31T01:36:39.636Z,4.13
2022-12-31T01:39:08.565Z,3.42
2022-12-31T01:41:40.082Z,4.07
2022-12-31T01:44:13.026Z,6.85
2022-12-31T01:46:56.189Z,3.90
2022-12-31T01:49:36.028Z,3.67
2022-12-31T01:52:27.300Z,5.25
2022-12-31T01:55:14.800Z,5.63
2022-12-31T01:57:44.075Z,4.55
2022-12-31T02:00:11.553Z,4.40
2022-12-31T02:02:38.857Z,4.97
2022-12-31T02:05:29.272Z,2.97
2022-12-31T02:07:57.567Z,4.20
2022-12-31T02:10:24.556Z,4.75
2022-12-31T02:12:52.609Z,3.97
2022-12-31T02:15:27.997Z,8.10
2022-12-31T02:18:29.397Z,4.60
2022-12-31T02:21:16.112Z,2.65
2022-12-31T02:23:55.472Z,4.82
2022-12-31T02:26:57.090Z,3.80
2022-12-31T02:30:08.677Z,3.20
2022-12-31T02:33:03.500Z,3.33
2022-12-31T02:35:49.001Z,2.35
2022-12-31T02:38:33.538Z,3.88
2022-12-31T02:41:00.786Z,4.00
2022-12-31T02:43:28.044Z,3.20
2022-12-31T02:46:52.923Z,3.20
2022-12-31T02:50:09.290Z,2.33
2022-12-31T02:53:39.480Z,3.38
2022-12-31T02:56:24.197Z,3.22
2022-12-31T02:59:24.626Z,3.85
2022-12-31T03:02:14.911Z,5.32
2022-12-31T03:04:56.323Z,5.40
2022-12-31T03:07:30.393Z,3.85
2022-12-31T03:09:58.026Z,3.63
2022-12-31T03:12:46.960Z,4.28
2022-12-31T03:15:30.377Z,2.53
2022-12-31T03:18:11.673Z,2.42
2022-12-31T03:21:09.609Z,3.20
2022-12-31T03:24:04.981Z,3.83
2022-12-31T03:26:31.787Z,2.83
2022-12-31T03:28:58.528Z,1.63
2022-12-31T03:31:25.353Z,3.95
2022-12-31T03:33:52.274Z,2.70
2022-12-31T03:36:19.057Z,3.55
2022-12-31T03:38:49.827Z,2.35
2022-12-31T03:41:19.533Z,3.92
2022-12-31T03:43:46.334Z,2.45
2022-12-31T03:46:13.197Z,2.45
2022-12-31T03:48:40.082Z,2.08
2022-12-31T03:51:06.889Z,3.42
2022-12-31T03:53:35.528Z,2.55
2022-12-31T03:56:02.316Z,2.03
2022-12-31T03:58:29.381Z,3.45
2022-12-31T04:00:56.347Z,4.60
2022-12-31T04:03:23.331Z,2.80
2022-12-31T04:05:56.304Z,4.63
2022-12-31T04:08:23.938Z,2.55
2022-12-31T04:10:50.915Z,3.70
2022-12-31T04:13:17.831Z,4.05
2022-12-31T04:15:44.748Z,1.35
2022-12-31T04:18:11.575Z,2.10
2022-12-31T04:20:38.397Z,4.65
2022-12-31T04:23:05.227Z,1.95
2022-12-31T04:25:32.325Z,3.03
2022-12-31T04:27:59.171Z,2.15
2022-12-31T04:30:25.944Z,2.28
2022-12-31T04:32:52.747Z,2.75
2022-12-31T04:35:19.699Z,2.33
2022-12-31T04:37:46.534Z,1.92
2022-12-31T04:40:13.516Z,1.42
2022-12-31T04:42:40.367Z,2.03
2022-12-31T04:45:08.349Z,5.18
2022-12-31T04:47:35.325Z,3.30
2022-12-31T04:50:04.319Z,2.75
2022-12-31T04:52:34.532Z,2.53
2022-12-31T04:55:04.580Z,2.35
2022-12-31T04:57:31.449Z,2.75
2022-12-31T04:59:58.269Z,2.35
2022-12-31T05:02:25.231Z,2.35
2022-12-31T05:04:52.158Z,2.45
2022-12-31T05:07:18.971Z,3.15
2022-12-31T05:09:45.765Z,2.63
2022-12-31T05:12:12.579Z,3.08
2022-12-31T05:14:39.380Z,2.25
2022-12-31T05:17:06.119Z,2.75
2022-12-31T05:19:32.879Z,2.88
2022-12-31T05:22:18.209Z,4.07
2022-12-31T05:24:44.996Z,4.22
2022-12-31T05:27:11.795Z,3.17
2022-12-31T05:29:38.537Z,6.07
2022-12-31T05:32:05.444Z,3.30
2022-12-31T05:34:32.277Z,3.75
2022-12-31T05:36:59.048Z,4.45
2022-12-31T05:39:25.797Z,3.47
2022-12-31T05:41:52.599Z,2.47
2022-12-31T05:44:20.312Z,3.28
2022-12-31T05:46:47.270Z,2.67
2022-12-31T05:49:14.239Z,3.03
2022-12-31T05:51:41.142Z,4.03
2022-12-31T05:54:07.914Z,2.22
2022-12-31T05:56:36.941Z,2.08
2022-12-31T05:59:03.978Z,2.97
2022-12-31T06:01:30.816Z,1.85
2022-12-31T06:03:57.668Z,1.98
2022-12-31T06:06:24.472Z,1.73
2022-12-31T06:08:52.548Z,3.03
2022-12-31T06:11:19.321Z,2.17
2022-12-31T06:13:46.100Z,1.73
2022-12-31T06:16:13.754Z,1.45
2022-12-31T06:18:41.097Z,2.03
2022-12-31T06:21:07.948Z,0.95
2022-12-31T06:23:34.949Z,1.27
2022-12-31T06:26:04.128Z,1.17
2022-12-31T06:28:31.247Z,1.25
2022-12-31T06:31:03.887Z,1.10
2022-12-31T06:33:31.200Z,1.65
2022-12-31T06:36:01.000Z,1.70
2022-12-31T06:38:31.301Z,2.17
2022-12-31T06:40:58.201Z,2.35
2022-12-31T06:43:25.127Z,3.30
2022-12-31T06:45:51.869Z,4.13
2022-12-31T06:48:18.659Z,4.55
2022-12-31T06:50:45.499Z,4.28
2022-12-31T06:53:12.311Z,4.10
2022-12-31T06:55:39.560Z,3.95
2022-12-31T06:58:06.678Z,4.88
2022-12-31T07:00:33.879Z,6.25
2022-12-31T07:03:14.946Z,4.32
2022-12-31T07:05:52.345Z,4.03
2022-12-31T07:08:47.649Z,2.55
2022-12-31T07:11:38.512Z,1.92
2022-12-31T07:14:46.389Z,1.20
2022-12-31T07:17:26.571Z,1.45
2022-12-31T07:20:10.126Z,1.33
2022-12-31T07:22:37.825Z,1.00
2022-12-31T07:25:07.372Z,0.75
2022-12-31T07:27:58.869Z,1.08
2022-12-31T07:31:01.557Z,0.25
2022-12-31T07:33:49.537Z,0.57
2022-12-31T07:37:20.747Z,0.10
2022-12-31T07:40:18.351Z,0.57
2022-12-31T07:43:18.389Z,0.85
2022-12-31T07:46:15.366Z,0.30
2022-12-31T07:48:42.593Z,0.30
2022-12-31T07:51:10.941Z,1.02
2022-12-31T07:53:39.750Z,0.85
2022-12-31T07:56:09.699Z,1.02
2022-12-31T07:59:22.439Z,0.30
2022-12-31T08:02:39.916Z,0.50
2022-12-31T08:05:39.095Z,0.80
2022-12-31T08:08:36.310Z,1.25
2022-12-31T08:11:17.150Z,1.25
2022-12-31T08:13:44.235Z,0.47
2022-12-31T08:16:13.934Z,1.45
2022-12-31T08:18:42.248Z,0.50
2022-12-31T08:21:51.591Z,2.15
2022-12-31T08:25:12.381Z,1.02
2022-12-31T08:28:13.030Z,2.88
2022-12-31T08:31:13.856Z,0.65
2022-12-31T08:34:07.484Z,0.35
2022-12-31T08:37:23.246Z,1.00
2022-12-31T08:40:20.343Z,1.25
2022-12-31T08:43:20.477Z,1.60
2022-12-31T08:45:53.528Z,2.00
2022-12-31T08:48:41.652Z,1.02
2022-12-31T08:51:28.948Z,2.03
2022-12-31T08:53:56.375Z,1.98
2022-12-31T08:56:53.547Z,2.00
2022-12-31T08:59:35.633Z,0.93
2022-12-31T09:02:55.970Z,1.90
2022-12-31T09:05:25.444Z,2.47
2022-12-31T09:08:16.580Z,1.60
2022-12-31T09:11:07.594Z,2.00
2022-12-31T09:14:01.990Z,1.27
2022-12-31T09:16:53.846Z,1.33
2022-12-31T09:19:20.753Z,2.03
2022-12-31T09:21:48.017Z,2.63
2022-12-31T09:24:16.738Z,3.78
2022-12-31T09:26:59.080Z,2.97
2022-12-31T09:29:50.165Z,2.97
2022-12-31T09:32:48.092Z,2.53
2022-12-31T09:35:37.823Z,1.40
2022-12-31T09:38:13.514Z,3.22
2022-12-31T09:40:45.740Z,3.30
2022-12-31T09:43:54.584Z,3.50
2022-12-31T09:47:10.607Z,2.20
2022-12-31T09:49:56.186Z,2.92
2022-12-31T09:53:02.756Z,3.65
2022-12-31T09:56:11.529Z,2.38
2022-12-31T09:58:58.600Z,13.82
2022-12-31T10:01:57.747Z,4.15
2022-12-31T10:04:43.257Z,2.35
2022-12-31T10:07:24.228Z,3.42
2022-12-31T10:10:22.539Z,1.63
2022-12-31T10:13:21.639Z,3.80
2022-12-31T10:16:13.024Z,2.80
2022-12-31T10:19:23.615Z,4.80
2022-12-31T10:22:19.790Z,4.03
2022-12-31T10:25:38.906Z,2.85
2022-12-31T10:28:55.060Z,2.90
2022-12-31T10:31:56.538Z,4.72
2022-12-31T10:34:44.134Z,2.70
2022-12-31T10:37:18.257Z,25.85
2022-12-31T10:40:15.541Z,4.18
2022-12-31T10:43:22.384Z,2.00
2022-12-31T10:46:25.762Z,2.83
2022-12-31T10:49:40.856Z,3.60
2022-12-31T10:52:47.489Z,4.70
2022-12-31T10:55:35.115Z,4.55
2022-12-31T10:58:45.678Z,2.42
2022-12-31T11:01:24.290Z,2.90
2022-12-31T11:04:37.645Z,3.38
2022-12-31T11:07:58.842Z,2.35
2022-12-31T11:10:42.613Z,1.75
2022-12-31T11:14:10.508Z,2.67
2022-12-31T11:17:16.969Z,3.17
2022-12-31T11:20:27.350Z,3.38
2022-12-31T11:23:39.223Z,2.63
2022-12-31T11:26:33.503Z,4.47
2022-12-31T11:29:53.886Z,3.88
2022-12-31T11:32:44.926Z,2.55
2022-12-31T11:35:45.951Z,2.70
2022-12-31T11:38:29.969Z,2.17
2022-12-31T11:41:26.371Z,3.63
2022-12-31T11:44:18.080Z,4.57
2022-12-31T11:48:28.419Z,4.38
2022-12-31T11:51:21.533Z,4.82
2022-12-31T11:54:18.091Z,3.90
2022-12-31T11:56:56.420Z,4.57
2022-12-31T11:59:23.326Z,4.32
2022-12-31T12:02:17.308Z,5.38
2022-12-31T12:04:48.286Z,5.40
2022-12-31T12:07:17.557Z,4.50
2022-12-31T12:09:46.073Z,4.65
2022-12-31T12:12:13.163Z,3.72
2022-12-31T12:14:43.765Z,5.82
2022-12-31T12:17:31.721Z,4.63
2022-12-31T12:20:14.096Z,6.93
2022-12-31T12:22:51.883Z,5.85
2022-12-31T12:25:26.761Z,6.07
2022-12-31T12:27:54.456Z,3.63
2022-12-31T12:30:28.620Z,4.13
2022-12-31T12:32:58.547Z,5.22
2022-12-31T12:35:30.785Z,5.07
2022-12-31T12:38:16.129Z,10.60
2022-12-31T12:40:58.543Z,5.05
2022-12-31T12:43:33.264Z,3.38
2022-12-31T12:46:05.737Z,3.45
2022-12-31T12:48:45.974Z,4.43
2022-12-31T12:51:40.348Z,4.80
2022-12-31T12:55:16.276Z,4.88
2022-12-31T12:58:18.643Z,7.70
2022-12-31T13:01:19.000Z,3.35
2022-12-31T13:04:38.193Z,3.55
2022-12-31T13:07:13.259Z,5.68
2022-12-31T13:10:17.504Z,5.30
2022-12-31T13:13:23.994Z,14.48
2022-12-31T13:16:12.693Z,5.25
2022-12-31T13:19:11.441Z,5.57
2022-12-31T13:22:23.396Z,3.92
2022-12-31T13:25:30.366Z,4.10
2022-12-31T13:28:04.059Z,8.77
2022-12-31T13:30:44.335Z,6.57
2022-12-31T13:33:18.252Z,11.20
2022-12-31T13:35:53.497Z,4.45
2022-12-31T13:38:34.519Z,5.40
2022-12-31T13:41:22.636Z,6.28
2022-12-31T13:44:04.735Z,4.78
2022-12-31T13:46:53.739Z,5.82
2022-12-31T13:49:41.620Z,4.40
2022-12-31T13:52:32.082Z,3.33
2022-12-31T13:55:11.197Z,5.05
2022-12-31T13:57:55.761Z,6.75
2022-12-31T14:00:34.541Z,4.55
2022-12-31T14:03:24.942Z,3.72
2022-12-31T14:06:15.183Z,5.55
2022-12-31T14:08:41.993Z,5.00
2022-12-31T14:11:53.639Z,5.22
2022-12-31T14:14:43.966Z,5.32
2022-12-31T14:17:24.673Z,4.72
2022-12-31T14:20:39.273Z,4.22
2022-12-31T14:23:36.769Z,6.13
2022-12-31T14:26:28.384Z,6.60
2022-12-31T14:28:57.908Z,5.20
2022-12-31T14:31:49.281Z,6.55
2022-12-31T14:34:49.592Z,6.32
2022-12-31T14:37:37.174Z,5.05
2022-12-31T14:40:22.275Z,24.50
2022-12-31T14:43:16.728Z,5.13
2022-12-31T14:46:05.749Z,6.28
2022-12-31T14:49:14.742Z,6.10
2022-12-31T14:51:42.102Z,8.35
2022-12-31T14:54:37.232Z,9.32
2022-12-31T14:57:23.362Z,6.18
2022-12-31T15:00:21.211Z,15.85
2022-12-31T15:03:04.792Z,8.38
2022-12-31T15:05:38.201Z,4.50
2022-12-31T15:08:54.051Z,4.57
2022-12-31T15:11:42.208Z,7.93
2022-12-31T15:14:21.277Z,8.98
2022-12-31T15:17:17.832Z,10.93
2022-12-31T15:20:26.058Z,8.90
2022-12-31T15:22:54.623Z,9.80
2022-12-31T15:25:27.429Z,31.75
2022-12-31T15:27:57.633Z,11.63
2022-12-31T15:30:46.995Z,13.27
2022-12-31T15:33:37.519Z,12.07
2022-12-31T15:36:21.139Z,9.35
2022-12-31T15:38:49.955Z,11.43
2022-12-31T15:41:19.517Z,13.55
2022-12-31T15:44:43.120Z,12.30
2022-12-31T15:47:31.332Z,9.80
2022-12-31T15:50:05.019Z,14.55
2022-12-31T15:52:47.966Z,11.82
2022-12-31T15:55:25.732Z,7.95
2022-12-31T15:58:00.141Z,9.52
2022-12-31T16:00:46.677Z,7.93
2022-12-31T16:03:33.645Z,6.45
2022-12-31T16:06:07.991Z,9.02
2022-12-31T16:08:35.581Z,11.80
2022-12-31T16:11:07.284Z,11.23
2022-12-31T16:13:40.847Z,11.75
2022-12-31T16:16:31.359Z,7.03
2022-12-31T16:18:59.410Z,9.93
2022-12-31T16:21:35.326Z,11.77
2022-12-31T16:24:23.351Z,12.63
2022-12-31T16:26:54.715Z,14.18
2022-12-31T16:29:24.212Z,12.63
2022-12-31T16:31:53.706Z,9.27
2022-12-31T16:34:27.669Z,10.50
2022-12-31T16:37:01.524Z,8.40
2022-12-31T16:39:37.697Z,9.88
2022-12-31T16:42:27.019Z,10.70
2022-12-31T16:44:56.916Z,7.88
2022-12-31T16:47:35.902Z,9.43
2022-12-31T16:50:15.656Z,9.82
2022-12-31T16:52:47.031Z,11.68
2022-12-31T16:55:25.669Z,10.40
2022-12-31T16:57:59.238Z,14.38
2022-12-31T17:00:27.222Z,8.95
2022-12-31T17:03:25.729Z,8.98
2022-12-31T17:06:07.419Z,10.57
2022-12-31T17:08:49.203Z,12.82
2022-12-31T17:11:45.103Z,12.35
2022-12-31T17:14:16.051Z,14.75
2022-12-31T17:17:07.907Z,13.10
2022-12-31T17:19:51.478Z,12.23
2022-12-31T17:22:36.384Z,39.25
2022-12-31T17:25:07.527Z,61.60
2022-12-31T17:27:36.528Z,15.98
2022-12-31T17:30:30.131Z,12.73
2022-12-31T17:33:22.419Z,14.18
2022-12-31T17:36:13.515Z,10.77
2022-12-31T17:38:40.981Z,8.65
2022-12-31T17:41:07.784Z,11.95
2022-12-31T17:43:37.949Z,10.50
2022-12-31T17:46:16.523Z,18.55
2022-12-31T17:48:49.424Z,8.43
2022-12-31T17:51:16.215Z,11.60
2022-12-31T17:53:51.337Z,13.65
2022-12-31T17:56:19.633Z,17.73
2022-12-31T17:58:51.609Z,10.20
2022-12-31T18:01:23.111Z,13.65
2022-12-31T18:03:50.389Z,13.88
2022-12-31T18:06:19.312Z,12.18
2022-12-31T18:08:46.402Z,9.18
2022-12-31T18:11:18.768Z,10.20
2022-12-31T18:13:46.228Z,14.15
2022-12-31T18:16:13.442Z,10.38
2022-12-31T18:18:42.205Z,11.20
2022-12-31T18:21:19.535Z,9.77
2022-12-31T18:23:48.574Z,13.10
2022-12-31T18:26:22.594Z,10.98
2022-12-31T18:28:50.903Z,9.85
2022-12-31T18:31:29.913Z,10.63
2022-12-31T18:33:59.215Z,10.90
2022-12-31T18:36:29.182Z,9.63
2022-12-31T18:38:56.060Z,13.02
2022-12-31T18:41:27.599Z,13.93
2022-12-31T18:43:55.390Z,9.63
2022-12-31T18:46:25.037Z,12.18
2022-12-31T18:48:52.075Z,10.93
2022-12-31T18:51:31.312Z,9.05
2022-12-31T18:53:59.558Z,37.70
2022-12-31T18:56:26.614Z,13.80
2022-12-31T18:58:53.753Z,22.05
2022-12-31T19:01:37.101Z,12.38
2022-12-31T19:04:22.807Z,21.77
2022-12-31T19:06:51.750Z,13.65
2022-12-31T19:09:44.018Z,32.03
2022-12-31T19:12:06.094Z,12.27
2022-12-31T19:14:32.905Z,10.68
2022-12-31T19:19:26.391Z,8.68
2022-12-31T19:21:53.200Z,10.48
2022-12-31T19:24:26.592Z,11.55
2022-12-31T19:26:54.633Z,13.75
2022-12-31T19:29:25.892Z,13.40
2022-12-31T19:31:54.051Z,14.48
2022-12-31T19:34:21.414Z,23.00
2022-12-31T19:36:48.359Z,15.25
2022-12-31T19:39:19.497Z,13.90
2022-12-31T19:41:53.017Z,14.60
2022-12-31T19:44:25.653Z,20.58
2022-12-31T19:46:52.414Z,10.70
2022-12-31T19:49:19.216Z,12.40
2022-12-31T19:51:46.151Z,6.72
2022-12-31T19:54:13.573Z,8.43
2022-12-31T19:56:41.020Z,8.93
2022-12-31T19:59:10.165Z,8.80
2022-12-31T20:01:37.754Z,10.27
2022-12-31T20:04:04.944Z,10.60
2022-12-31T20:06:31.843Z,12.82
2022-12-31T20:08:58.679Z,13.30
2022-12-31T20:11:25.806Z,12.27
2022-12-31T20:13:53.948Z,11.93
2022-12-31T20:16:26.489Z,8.90
2022-12-31T20:18:53.446Z,10.98
2022-12-31T20:21:24.391Z,9.25
2022-12-31T20:23:53.778Z,9.45
2022-12-31T20:26:22.826Z,9.00
2022-12-31T20:28:50.756Z,53.35
2022-12-31T20:31:23.137Z,11.40
2022-12-31T20:33:50.115Z,12.80
2022-12-31T20:36:17.800Z,14.18
2022-12-31T20:38:45.632Z,16.73
2022-12-31T20:41:16.710Z,18.90
2022-12-31T20:43:44.876Z,10.02
2022-12-31T20:46:19.441Z,9.05
2022-12-31T20:48:48.527Z,10.07
2022-12-31T20:51:17.100Z,15.15
2022-12-31T20:54:09.900Z,10.63
2022-12-31T20:56:40.367Z,12.25
2022-12-31T20:59:09.273Z,9.18
2022-12-31T21:02:11.729Z,16.55
2022-12-31T21:04:24.379Z,12.35
2022-12-31T21:06:52.184Z,15.65
2022-12-31T21:09:18.969Z,12.30
2022-12-31T21:12:04.292Z,10.52
2022-12-31T21:14:31.210Z,14.63
2022-12-31T21:16:58.036Z,9.77
2022-12-31T21:19:24.909Z,10.13
2022-12-31T21:21:51.744Z,73.00
2022-12-31T21:24:23.638Z,13.52
2022-12-31T21:26:51.708Z,20.30
2022-12-31T21:29:18.531Z,14.35
2022-12-31T21:31:45.288Z,12.05
2022-12-31T21:34:12.117Z,13.35
2022-12-31T21:36:38.941Z,15.80
2022-12-31T21:39:05.688Z,12.75
2022-12-31T21:41:50.811Z,11.02
2022-12-31T21:44:26.024Z,10.30
2022-12-31T21:47:38.502Z,14.68
2022-12-31T21:50:07.596Z,15.50
2022-12-31T21:52:35.067Z,13.00
2022-12-31T21:55:23.398Z,13.35
2022-12-31T21:58:24.718Z,14.15
2022-12-31T22:00:57.403Z,10.48
2022-12-31T22:03:24.329Z,11.32
2022-12-31T22:05:52.976Z,12.52
2022-12-31T22:08:22.360Z,11.45
2022-12-31T22:10:52.753Z,35.85
2022-12-31T22:13:20.098Z,14.95
2022-12-31T22:15:52.166Z,12.98
2022-12-31T22:18:19.986Z,12.30
2022-12-31T22:20:47.021Z,14.35
2022-12-31T22:23:14.133Z,15.45
2022-12-31T22:25:40.932Z,12.50
2022-12-31T22:30:55.242Z,16.15
2022-12-31T22:33:22.120Z,13.27
2022-12-31T22:36:05.420Z,10.00
2022-12-31T22:38:33.229Z,13.15
2022-12-31T22:41:09.297Z,14.27
2022-12-31T22:43:39.472Z,14.13
2022-12-31T22:46:09.994Z,10.27
2022-12-31T22:48:37.769Z,7.93
2022-12-31T22:51:06.136Z,20.25
2022-12-31T22:53:33.285Z,17.25
2022-12-31T22:56:00.333Z,11.82
2022-12-31T22:58:27.584Z,8.65
2022-12-31T23:00:54.493Z,11.13
2022-12-31T23:03:21.415Z,11.05
2022-12-31T23:05:52.743Z,46.88
2022-12-31T23:08:23.545Z,106.75
2022-12-31T23:10:59.656Z,81.57
2022-12-31T23:13:59.836Z,285.70
2022-12-31T23:16:48.424Z,93.43
2022-12-31T23:19:34.917Z,88.75
2022-12-31T23:22:20.380Z,64.32
2022-12-31T23:24:47.182Z,139.88
2022-12-31T23:27:14.006Z,101.60
2022-12-31T23:29:46.595Z,85.07
2022-12-31T23:32:16.178Z,105.05
2022-12-31T23:34:45.192Z,58.08
2022-12-31T23:37:14.487Z,64.80
2022-12-31T23:39:42.342Z,99.80
2022-12-31T23:42:09.297Z,50.90
2022-12-31T23:44:36.143Z,41.03
2022-12-31T23:47:03.046Z,39.53
2022-12-31T23:49:30.116Z,57.20
2022-12-31T23:51:56.912Z,53.63
2022-12-31T23:54:23.747Z,37.55
2022-12-31T23:56:50.598Z,38.63
2022-12-31T23:59:18.379Z,42.50
